»·PEaware :: SWA51 KLAS-KONT

SWA51 :: KLAS-KONT

FLIGHT INFORMATION

Flight Status: Arrived
Operator:
Southwest Airlines
More flights by this operator :: More flights under this callsign
Pilot: Steve F. (26981)
Aircraft: BOEING 737-800
(B738)
More flights by this aircraft type
Origin: KLAS McCarran Intl
United States
Destination: KONT Ontario Intl
United States
More flights between these airports :: More routes between these airports
Route: +BOACH8 WHIGG FEYLA JCKIE2
File this flight plan on PilotEdge
Remarks:
Altitude:
(Current/Filed)
26,000ft
Speed:
(Current/Filed)
430kts
Departed: 16-Dec-19 01:32 PM
Arrived: 16-Dec-19 02:11 PM
Distance/Time
Traveled:
170nm/0:38
Distance/Time
To Go:
Arrived

Flight Plot

Page will automatically refresh every two minutes.


Map Options




Map Legend


Flown Route
Filed Route
Departure Airport
Arrival Airport
Navaid (VOR, NDB)
Fix

Horizontal Profiles

Position Reports

Time Latitude Longitude Heading Altitude Ground
Speed
16-Dec-19 13:11 36.082564 -115.150189 291 2189ft 0kts
16-Dec-19 13:12 36.082564 -115.150189 291 2189ft 0kts
16-Dec-19 13:13 36.082564 -115.150189 291 2189ft 0kts
16-Dec-19 13:14 36.082564 -115.150189 291 2189ft 0kts
16-Dec-19 13:14 36.082564 -115.150189 291 2189ft 0kts
16-Dec-19 13:16 36.082564 -115.150189 291 2189ft 0kts
16-Dec-19 13:17 36.082564 -115.150189 291 2189ft 0kts
16-Dec-19 13:17 36.082564 -115.150189 291 2189ft 0kts
16-Dec-19 13:18 36.082564 -115.150189 291 2189ft 0kts
16-Dec-19 13:20 36.082381 -115.149623 291 2189ft 0kts
16-Dec-19 13:20 36.082381 -115.149624 291 2189ft 0kts
16-Dec-19 13:21 36.082382 -115.149626 291 2189ft 0kts
16-Dec-19 13:22 36.082383 -115.149628 291 2189ft 0kts
16-Dec-19 13:23 36.082132 -115.149352 103 2189ft 4kts
16-Dec-19 13:24 36.079731 -115.150773 231 2189ft 5kts
16-Dec-19 13:25 36.079267 -115.151007 181 2189ft 0kts
16-Dec-19 13:26 36.077889 -115.151508 269 2189ft 12kts
16-Dec-19 13:27 36.077939 -115.156026 269 2189ft 11kts
16-Dec-19 13:28 36.077932 -115.159597 269 2189ft 13kts
16-Dec-19 13:29 36.077940 -115.163365 270 2189ft 0kts
16-Dec-19 13:30 36.077949 -115.164203 271 2189ft 0kts
16-Dec-19 13:31 36.081771 -115.163154 25 2189ft 82kts
16-Dec-19 13:32 36.122787 -115.158635 315 4214ft 205kts
16-Dec-19 13:33 36.120429 -115.233917 253 6724ft 243kts
16-Dec-19 13:34 36.082334 -115.304327 203 8140ft 276kts
16-Dec-19 13:35 36.007727 -115.338013 199 9417ft 288kts
16-Dec-19 13:36 35.930721 -115.374320 200 10300ft 308kts
16-Dec-19 13:37 35.838114 -115.358162 160 11939ft 374kts
16-Dec-19 13:38 35.735971 -115.317099 163 14759ft 396kts
16-Dec-19 13:39 35.633041 -115.338164 228 17574ft 386kts
16-Dec-19 13:40 35.569072 -115.442680 232 20323ft 393kts
16-Dec-19 13:41 35.493702 -115.542793 234 22800ft 402kts
16-Dec-19 13:42 35.417670 -115.645430 235 24919ft 412kts
16-Dec-19 13:43 35.339550 -115.750516 235 26434ft 419kts
16-Dec-19 13:44 35.261616 -115.854794 235 26447ft 413kts
16-Dec-19 13:45 35.184324 -115.957989 235 26444ft 403kts
16-Dec-19 13:46 35.113445 -116.051970 236 25834ft 386kts
16-Dec-19 13:47 35.040741 -116.147940 235 24981ft 382kts
16-Dec-19 13:48 34.966841 -116.240331 230 23805ft 381kts
16-Dec-19 13:49 34.889448 -116.326055 230 21894ft 371kts
16-Dec-19 13:50 34.816344 -116.412771 231 20094ft 364kts
16-Dec-19 13:51 34.754656 -116.507186 240 18984ft 354kts
16-Dec-19 13:52 34.697422 -116.603768 239 17899ft 349kts
16-Dec-19 13:53 34.641343 -116.697969 238 16244ft 342kts
16-Dec-19 13:54 34.587931 -116.793763 245 14273ft 341kts
16-Dec-19 13:55 34.541764 -116.894390 238 12540ft 337kts
16-Dec-19 13:56 34.483433 -116.977754 231 11732ft 312kts
16-Dec-19 13:57 34.419763 -117.043882 209 10903ft 297kts
16-Dec-19 13:58 34.346859 -117.088738 208 10086ft 288kts
16-Dec-19 13:59 34.276912 -117.133162 208 10078ft 285kts
16-Dec-19 14:00 34.206477 -117.178005 208 10063ft 286kts
16-Dec-19 14:01 34.136004 -117.223105 208 9511ft 285kts
16-Dec-19 14:02 34.069342 -117.267131 208 8404ft 262kts
16-Dec-19 14:03 34.008393 -117.307697 208 6997ft 238kts
16-Dec-19 14:04 33.957996 -117.355915 253 5103ft 230kts
16-Dec-19 14:05 33.986491 -117.404253 350 4742ft 198kts
16-Dec-19 14:06 34.037566 -117.423594 336 3800ft 194kts
16-Dec-19 14:07 34.056527 -117.479853 273 2780ft 185kts
16-Dec-19 14:08 34.056792 -117.534216 271 1857ft 146kts
16-Dec-19 14:09 34.056881 -117.583064 271 971ft 142kts
16-Dec-19 14:10 34.057114 -117.603090 346 952ft 11kts
16-Dec-19 14:11 34.057513 -117.603138 357 952ft 0kts
16-Dec-19 14:12 34.057917 -117.598316 89 952ft 25kts
16-Dec-19 14:13 34.058055 -117.589967 20 952ft 8kts
16-Dec-19 14:14 34.060448 -117.588931 358 952ft 3kts
16-Dec-19 14:15 34.060510 -117.588933 358 952ft 0kts
16-Dec-19 14:16 34.060510 -117.588933 358 952ft 0kts
16-Dec-19 14:17 34.060510 -117.588933 358 952ft 0kts
16-Dec-19 14:18 34.060510 -117.588933 358 952ft 0kts
16-Dec-19 14:19 34.060510 -117.588933 358 952ft 0kts

Navigation Log

Ident Type
Flight plan parsing failed, navigation log unavailable